Time;durP1;ratioP1;P1;durP2;ratioP2;P2;SDS_P1;SDS_P2;PMS_P1;PMS_P2;Temp;Humidity;BMP_temperature;BMP_pressure;BME280_temperature;BME280_humidity;BME280_pressure;Samples;Min_cycle;Max_cycle;Signal;HPM_P1;HPM_P2
2021/07/13 00:00:39;;;;;;;11.88;6.43;;;18.40;99.90;;;17.74;100.00;96908.41;5031631;28;20052;-63
2021/07/13 00:03:26;;;;;;;8.43;5.88;;;18.40;99.90;;;17.70;100.00;96902.59;5044996;28;20087;-63
2021/07/13 00:06:14;;;;;;;9.05;6.28;;;18.40;99.90;;;17.68;100.00;96898.44;5046486;28;20037;-63
2021/07/13 00:09:02;;;;;;;8.50;6.40;;;18.50;99.90;;;17.72;100.00;96897.19;5048182;28;20186;-63
2021/07/13 00:11:50;;;;;;;7.45;5.47;;;18.50;99.90;;;17.72;100.00;96891.94;5042633;28;20490;-63
2021/07/13 00:14:38;;;;;;;16.55;10.95;;;18.50;99.90;;;17.68;100.00;96890.56;5048462;28;20059;-63
2021/07/13 00:17:25;;;;;;;11.82;8.60;;;18.50;99.90;;;17.64;100.00;96883.88;5025500;28;20049;-63
2021/07/13 00:20:13;;;;;;;10.32;8.57;;;18.40;99.90;;;17.54;100.00;96895.13;5049326;28;20052;-63
2021/07/13 00:23:00;;;;;;;8.52;6.60;;;18.30;99.90;;;17.59;100.00;96889.50;5044178;28;20133;-63
2021/07/13 00:25:48;;;;;;;13.23;9.57;;;18.40;99.90;;;17.39;100.00;96898.19;5048302;28;20126;-64
2021/07/13 00:28:35;;;;;;;16.48;10.90;;;18.30;99.90;;;17.12;100.00;96907.31;5048393;28;20045;-64
2021/07/13 00:31:23;;;;;;;12.65;9.23;;;18.20;99.90;;;17.10;100.00;96903.97;5030734;28;20505;-64
2021/07/13 00:34:10;;;;;;;11.63;9.18;;;18.10;99.90;;;17.16;100.00;96892.16;5043080;28;20624;-64
2021/07/13 00:36:57;;;;;;;13.50;10.77;;;18.00;99.90;;;17.12;100.00;96891.56;5034573;28;20041;-64
2021/07/13 00:39:45;;;;;;;14.38;11.43;;;18.00;99.90;;;17.04;100.00;96894.81;5047394;28;20064;-64
2021/07/13 00:42:32;;;;;;;12.23;9.05;;;18.00;99.90;;;17.08;100.00;96893.63;5048745;28;20082;-64
2021/07/13 00:45:21;;;;;;;11.10;7.93;;;17.90;99.90;;;17.12;100.00;96886.31;5048241;28;20040;-64
2021/07/13 00:48:09;;;;;;;12.13;8.00;;;17.90;99.90;;;17.13;100.00;96890.63;5045128;28;20029;-64
2021/07/13 00:50:59;;;;;;;11.13;8.05;;;17.80;99.90;;;17.10;100.00;96890.84;5048940;28;20425;-64
2021/07/13 00:53:48;;;;;;;11.25;8.95;;;17.80;99.90;;;17.12;100.00;96891.56;5047195;28;20305;-64
2021/07/13 00:56:41;;;;;;;12.27;9.88;;;17.80;99.90;;;17.08;100.00;96892.75;5046775;28;20090;-64
2021/07/13 00:59:28;;;;;;;16.13;13.10;;;17.80;99.90;;;16.98;100.00;96884.81;5049469;28;20284;-64
2021/07/13 01:02:18;;;;;;;15.85;11.90;;;17.80;99.90;;;16.97;100.00;96879.66;5050254;28;20100;-64
2021/07/13 01:05:17;;;;;;;11.20;10.00;;;17.80;99.90;;;17.03;100.00;96882.63;5044680;28;20416;-64
2021/07/13 01:08:13;;;;;;;14.82;10.65;;;17.80;99.90;;;17.03;100.00;96885.25;5036940;28;20053;-64
2021/07/13 01:11:31;;;;;;;12.60;9.40;;;17.80;99.90;;;17.05;100.00;96883.34;5050090;28;20045;-64
2021/07/13 01:14:42;;;;;;;10.95;8.02;;;17.80;99.90;;;17.13;100.00;96877.50;5032712;28;20041;-64
2021/07/13 01:17:35;;;;;;;10.90;8.82;;;17.80;99.90;;;17.13;100.00;96873.09;5035534;28;20033;-64
2021/07/13 01:21:06;;;;;;;12.43;9.75;;;17.90;99.90;;;17.20;100.00;96862.94;5044175;28;20568;-64
2021/07/13 01:24:13;;;;;;;12.18;9.93;;;17.80;99.90;;;17.18;100.00;96864.84;5031550;28;20045;-64
2021/07/13 01:27:09;;;;;;;11.70;9.57;;;17.80;99.90;;;17.16;100.00;96869.38;5048704;28;20045;-64
2021/07/13 01:30:00;;;;;;;13.32;8.15;;;17.90;99.90;;;17.24;100.00;96874.88;5049230;28;20037;-64
2021/07/13 01:33:07;;;;;;;10.55;8.85;;;17.90;99.90;;;17.25;100.00;96873.06;5031786;28;20132;-64
2021/07/13 01:36:12;;;;;;;14.45;8.80;;;17.90;99.90;;;17.24;100.00;96879.25;5035851;28;20586;-64
2021/07/13 01:39:03;;;;;;;15.63;9.50;;;18.00;99.90;;;17.22;100.00;96874.16;5026639;28;20045;-64
2021/07/13 01:41:55;;;;;;;11.85;8.82;;;17.90;99.90;;;17.22;100.00;96863.66;5035261;28;20493;-64
2021/07/13 01:44:45;;;;;;;13.18;9.32;;;18.00;99.90;;;17.30;100.00;96857.78;5050611;28;20095;-64
2021/07/13 01:47:36;;;;;;;12.73;8.13;;;18.00;99.90;;;17.30;100.00;96860.41;5030855;28;20034;-64
2021/07/13 01:50:23;;;;;;;19.30;12.25;;;18.00;99.90;;;16.97;100.00;96866.56;5058006;28;20040;-64
2021/07/13 01:53:11;;;;;;;12.23;9.63;;;17.90;99.90;;;17.04;100.00;96865.97;5034753;28;20139;-64
2021/07/13 01:56:00;;;;;;;15.18;11.07;;;17.80;99.90;;;17.01;100.00;96876.69;5027197;28;20044;-64
2021/07/13 01:58:48;;;;;;;14.23;10.20;;;17.80;99.90;;;17.07;100.00;96872.75;5047999;28;20068;-64
2021/07/13 02:01:36;;;;;;;10.10;7.82;;;17.90;99.90;;;17.21;100.00;96856.72;5030065;28;20107;-64
2021/07/13 02:04:33;;;;;;;8.20;6.13;;;17.90;99.90;;;17.26;100.00;96845.88;5009179;28;20072;-64
2021/07/13 02:07:22;;;;;;;11.40;8.50;;;17.90;99.90;;;17.33;100.00;96854.91;5036063;28;20040;-64
2021/07/13 02:10:11;;;;;;;16.92;11.95;;;17.90;99.90;;;17.16;100.00;96863.31;5061026;28;20041;-64
2021/07/13 02:12:58;;;;;;;15.23;11.82;;;18.00;99.90;;;16.96;100.00;96870.97;5040791;28;20170;-64
2021/07/13 02:15:46;;;;;;;9.85;7.75;;;17.90;99.90;;;17.08;100.00;96877.88;5044754;28;20079;-64
2021/07/13 02:18:34;;;;;;;11.52;8.90;;;17.90;99.90;;;17.12;100.00;96884.53;5049813;28;20048;-64
2021/07/13 02:21:21;;;;;;;15.23;9.20;;;17.90;99.90;;;17.14;100.00;96880.00;5050613;28;20041;-64
2021/07/13 02:24:09;;;;;;;10.38;8.52;;;17.90;99.90;;;17.13;100.00;96883.59;5048969;28;20404;-64
2021/07/13 02:27:08;;;;;;;15.82;10.35;;;17.90;99.90;;;17.17;100.00;96878.09;5043146;28;20505;-64
2021/07/13 02:29:59;;;;;;;12.35;9.52;;;17.90;99.90;;;17.18;100.00;96872.72;5032069;28;20067;-64
2021/07/13 02:32:58;;;;;;;12.50;9.05;;;17.90;99.90;;;17.08;100.00;96863.91;5043454;28;20044;-64
2021/07/13 02:35:54;;;;;;;11.55;7.72;;;17.90;99.90;;;17.21;100.00;96861.16;5035991;28;20138;-63
2021/07/13 02:38:44;;;;;;;11.88;8.68;;;17.80;99.90;;;17.16;100.00;96852.84;5034502;28;20045;-63
2021/07/13 02:41:32;;;;;;;9.57;6.72;;;17.90;99.90;;;17.17;100.00;96852.69;5036566;28;20378;-63
2021/07/13 02:44:23;;;;;;;13.05;9.77;;;17.90;99.90;;;17.11;100.00;96853.19;5046826;28;20041;-63
2021/07/13 02:47:13;;;;;;;16.10;10.77;;;17.90;99.90;;;16.95;100.00;96864.09;5028144;28;20117;-63
2021/07/13 02:50:03;;;;;;;20.10;14.20;;;17.80;99.90;;;16.78;100.00;96864.56;5045611;28;20068;-63
2021/07/13 02:52:53;;;;;;;15.13;10.57;;;17.80;99.90;;;16.65;100.00;96870.78;5021807;28;20045;-64
2021/07/13 02:55:46;;;;;;;14.95;11.10;;;17.70;99.90;;;16.59;100.00;96863.38;5047986;28;20051;-64
2021/07/13 02:58:35;;;;;;;15.43;9.50;;;17.60;99.90;;;16.75;100.00;96852.53;5031661;28;20045;-64
2021/07/13 03:01:24;;;;;;;11.35;7.20;;;17.60;99.90;;;16.93;100.00;96839.78;5048048;28;20528;-64
2021/07/13 03:04:12;;;;;;;10.77;7.38;;;17.60;99.90;;;17.04;100.00;96825.81;5049494;28;20123;-64
2021/07/13 03:07:01;;;;;;;16.65;10.88;;;17.70;99.90;;;16.93;100.00;96821.44;5048513;28;20085;-64
2021/07/13 03:09:50;;;;;;;11.07;7.82;;;17.60;99.90;;;16.96;100.00;96805.44;5012994;28;20125;-64
2021/07/13 03:12:37;;;;;;;10.18;6.53;;;17.60;99.90;;;17.06;100.00;96818.63;5048451;28;20055;-64
2021/07/13 03:15:29;;;;;;;8.32;5.97;;;17.60;99.90;;;17.13;100.00;96832.94;5048871;28;20516;-64
2021/07/13 03:18:18;;;;;;;8.18;6.40;;;17.70;99.90;;;17.06;100.00;96834.38;5047702;28;20052;-64
2021/07/13 03:21:06;;;;;;;9.02;6.38;;;17.70;99.90;;;17.19;100.00;96832.41;5033770;28;20040;-64
2021/07/13 03:24:00;;;;;;;11.50;6.70;;;17.80;99.90;;;17.27;100.00;96830.03;5045998;28;20503;-64
2021/07/13 03:26:49;;;;;;;11.00;8.88;;;17.80;99.90;;;17.02;100.00;96831.19;5039621;28;20052;-64
2021/07/13 03:29:38;;;;;;;8.23;6.55;;;17.70;99.90;;;17.14;100.00;96837.22;5035934;28;20048;-64
2021/07/13 03:32:26;;;;;;;13.88;9.25;;;17.70;99.90;;;16.91;100.00;96826.78;5044731;28;20527;-64
2021/07/13 03:35:16;;;;;;;12.30;9.27;;;17.60;99.90;;;16.84;100.00;96828.22;5047590;28;20057;-64
2021/07/13 03:38:04;;;;;;;10.07;7.93;;;17.50;99.90;;;16.95;100.00;96806.41;5044037;28;20170;-64
2021/07/13 03:40:52;;;;;;;15.98;11.57;;;17.60;99.90;;;16.91;100.00;96800.56;5045811;28;20061;-64
2021/07/13 03:43:39;;;;;;;28.95;17.02;;;17.60;99.90;;;16.85;100.00;96798.44;5029397;28;20044;-64
2021/07/13 03:46:28;;;;;;;10.77;8.45;;;17.60;99.90;;;16.95;100.00;96787.25;5035406;28;20048;-64
2021/07/13 03:49:16;;;;;;;9.63;7.90;;;17.60;99.90;;;17.01;100.00;96782.31;5029402;28;20037;-64
2021/07/13 03:52:04;;;;;;;9.95;7.63;;;17.70;99.90;;;17.01;100.00;96766.56;5025571;28;20425;-64
2021/07/13 03:54:51;;;;;;;9.45;7.43;;;17.70;99.90;;;17.06;100.00;96769.66;5043728;28;20382;-64
2021/07/13 03:57:40;;;;;;;10.95;8.05;;;17.70;99.90;;;16.97;100.00;96767.81;5044691;28;20041;-64
2021/07/13 04:00:28;;;;;;;11.10;6.47;;;17.60;99.90;;;17.10;100.00;96767.63;5045351;28;20053;-64
2021/07/13 04:03:15;;;;;;;9.40;6.45;;;17.70;99.90;;;17.02;100.00;96773.50;5047982;28;20412;-64
2021/07/13 04:06:03;;;;;;;9.82;7.20;;;17.70;99.90;;;17.11;100.00;96770.13;5043239;28;20124;-64
2021/07/13 04:08:51;;;;;;;13.15;8.95;;;17.80;99.90;;;17.10;100.00;96770.25;5032568;28;20056;-64
2021/07/13 04:11:38;;;;;;;11.73;7.65;;;17.80;99.90;;;17.10;100.00;96776.31;5006688;28;20046;-64
2021/07/13 04:14:26;;;;;;;10.35;6.20;;;17.80;99.90;;;17.16;100.00;96784.66;5022904;28;20052;-64
2021/07/13 04:17:14;;;;;;;9.45;6.18;;;17.80;99.90;;;17.29;100.00;96786.13;5022604;28;20050;-64
2021/07/13 04:20:04;;;;;;;8.65;6.50;;;17.90;99.90;;;17.18;100.00;96787.97;5013814;28;20119;-64
2021/07/13 04:22:51;;;;;;;8.10;6.22;;;17.90;99.90;;;17.27;100.00;96795.09;5028564;28;20061;-63
2021/07/13 04:25:39;;;;;;;12.13;7.80;;;17.90;99.90;;;17.18;100.00;96804.53;5026855;28;20462;-65
2021/07/13 04:28:26;;;;;;;9.55;6.80;;;18.00;99.90;;;17.14;100.00;96816.22;5031236;28;20494;-64
2021/07/13 04:31:14;;;;;;;9.95;7.78;;;17.90;99.90;;;17.07;100.00;96822.94;5028573;28;20075;-63
2021/07/13 04:34:08;;;;;;;12.77;8.95;;;17.90;99.90;;;16.96;100.00;96817.72;5026639;28;20136;-64
2021/07/13 04:36:55;;;;;;;14.32;8.73;;;17.90;99.90;;;16.95;100.00;96816.91;5021677;28;20050;-64
2021/07/13 04:39:42;;;;;;;11.77;7.72;;;17.80;99.90;;;17.06;100.00;96822.13;5022540;28;20056;-62
2021/07/13 04:42:29;;;;;;;10.15;7.70;;;17.80;99.90;;;17.11;100.00;96814.69;5032296;28;20489;-62
2021/07/13 04:45:17;;;;;;;12.63;9.80;;;17.80;99.90;;;16.85;100.00;96811.53;5031922;28;20417;-64
2021/07/13 04:48:04;;;;;;;14.82;10.65;;;17.80;99.90;;;16.85;100.00;96810.72;5023754;28;20052;-62
2021/07/13 04:50:53;;;;;;;14.55;10.50;;;17.70;99.90;;;16.76;100.00;96814.88;5028873;28;20325;-62
2021/07/13 04:53:41;;;;;;;13.70;10.65;;;17.70;99.90;;;16.86;100.00;96809.78;5027903;28;20042;-62
2021/07/13 04:56:29;;;;;;;15.32;10.75;;;17.70;99.90;;;16.79;100.00;96804.19;5022573;28;20037;-62
2021/07/13 04:59:16;;;;;;;13.68;10.23;;;17.70;99.90;;;16.89;100.00;96807.72;5021115;28;20162;-62
2021/07/13 05:02:04;;;;;;;18.30;12.93;;;17.60;99.90;;;16.77;100.00;96810.47;5026530;28;20141;-62
2021/07/13 05:04:51;;;;;;;21.17;15.27;;;17.60;99.90;;;16.73;100.00;96810.72;5018758;28;20044;-62
2021/07/13 05:07:47;;;;;;;19.13;13.85;;;17.60;99.90;;;16.57;100.00;96807.66;5018793;28;20076;-62
2021/07/13 05:10:34;;;;;;;19.05;12.93;;;17.50;99.90;;;16.52;100.00;96794.91;5037929;28;20037;-62
2021/07/13 05:13:22;;;;;;;20.83;14.02;;;17.50;99.90;;;16.58;100.00;96790.13;5045649;28;20048;-62
2021/07/13 05:16:09;;;;;;;18.90;13.77;;;17.50;99.90;;;16.56;100.00;96782.41;5041238;28;20397;-63
2021/07/13 05:18:59;;;;;;;17.67;13.73;;;17.60;99.90;;;16.66;100.00;96770.22;5045569;28;20069;-62
2021/07/13 05:21:56;;;;;;;19.05;11.57;;;17.50;99.90;;;16.77;100.00;96768.56;5035590;28;20041;-62
2021/07/13 05:24:43;;;;;;;15.68;11.07;;;17.50;99.90;;;16.92;100.00;96749.81;5051101;28;20037;-62
2021/07/13 05:27:44;;;;;;;15.65;11.48;;;17.60;99.90;;;16.98;100.00;96747.66;5050531;28;20041;-62
2021/07/13 05:30:32;;;;;;;12.48;9.95;;;17.80;99.90;;;16.89;100.00;96747.44;5066900;28;20036;-62
2021/07/13 05:33:19;;;;;;;12.13;8.82;;;17.80;99.90;;;17.01;100.00;96747.41;5046008;28;20527;-62
2021/07/13 05:36:06;;;;;;;11.55;9.27;;;17.80;99.90;;;16.82;100.00;96758.56;5049045;28;20052;-62
2021/07/13 05:38:54;;;;;;;9.65;7.18;;;17.80;99.90;;;17.05;100.00;96751.44;5049594;28;20048;-62
2021/07/13 05:41:41;;;;;;;10.45;7.40;;;17.80;99.90;;;16.95;100.00;96753.97;5048911;28;20037;-62
2021/07/13 05:44:29;;;;;;;9.70;7.50;;;17.80;99.90;;;17.04;100.00;96760.28;5035538;28;20103;-62
2021/07/13 05:47:16;;;;;;;7.65;5.90;;;17.80;99.90;;;17.18;100.00;96762.59;5050178;28;20464;-62
2021/07/13 05:50:06;;;;;;;8.27;7.30;;;17.90;99.90;;;17.13;100.00;96762.97;5049603;28;20041;-62
2021/07/13 05:52:56;;;;;;;6.90;5.63;;;18.00;99.90;;;17.27;100.00;96769.69;5047900;28;20056;-62
2021/07/13 05:55:44;;;;;;;9.68;6.47;;;18.00;99.90;;;16.89;100.00;96775.44;5050096;28;20063;-62
2021/07/13 05:58:31;;;;;;;8.48;7.35;;;17.90;99.90;;;16.67;100.00;96779.78;5040576;28;20505;-63
2021/07/13 06:01:18;;;;;;;8.48;6.30;;;17.80;99.90;;;16.66;100.00;96783.34;5048416;28;20052;-62
2021/07/13 06:04:06;;;;;;;9.48;6.28;;;17.70;99.90;;;16.62;100.00;96786.31;5048191;28;20578;-62
2021/07/13 06:06:53;;;;;;;7.95;6.63;;;17.70;99.90;;;16.62;100.00;96791.56;5051855;28;20574;-63
2021/07/13 06:09:41;;;;;;;7.82;5.80;;;17.60;99.90;;;16.62;100.00;96794.19;5050702;28;20072;-62
2021/07/13 06:12:28;;;;;;;7.80;5.80;;;17.60;99.90;;;16.65;100.00;96786.06;5051175;28;20525;-62
2021/07/13 06:15:15;;;;;;;9.43;7.10;;;17.60;99.90;;;16.50;100.00;96796.00;5049619;28;20602;-62
2021/07/13 06:18:03;;;;;;;6.35;5.13;;;17.50;99.90;;;16.57;100.00;96793.72;5048335;28;20508;-62
2021/07/13 06:20:50;;;;;;;7.88;5.30;;;17.50;99.90;;;16.72;100.00;96795.94;5047174;28;20412;-62
2021/07/13 06:23:37;;;;;;;6.57;4.18;;;17.50;99.90;;;16.94;100.00;96799.50;5052114;28;20452;-62
2021/07/13 06:26:25;;;;;;;7.47;5.05;;;17.60;99.90;;;16.83;100.00;96795.13;5049660;28;20045;-62
2021/07/13 06:29:12;;;;;;;4.95;3.67;;;17.70;99.90;;;17.05;100.00;96807.31;5050402;28;20044;-62
2021/07/13 06:32:01;;;;;;;3.85;3.00;;;17.80;99.90;;;17.12;100.00;96808.47;5050351;28;20061;-63
2021/07/13 06:34:48;;;;;;;7.50;5.65;;;17.80;99.90;;;16.74;100.00;96822.03;5050327;28;20044;-62
2021/07/13 06:37:35;;;;;;;8.68;5.72;;;17.80;99.90;;;16.57;100.00;96825.16;5036138;28;20041;-62
2021/07/13 06:40:23;;;;;;;7.07;5.57;;;17.70;99.90;;;16.48;100.00;96819.69;5033253;28;20041;-63
2021/07/13 06:43:10;;;;;;;6.75;5.15;;;17.50;99.90;;;16.54;100.00;96822.78;5050700;28;20045;-63
2021/07/13 06:45:58;;;;;;;9.35;5.78;;;17.40;99.90;;;16.42;100.00;96822.78;5049641;28;20044;-63
2021/07/13 06:48:45;;;;;;;7.43;5.20;;;17.30;99.90;;;16.32;100.00;96829.69;5049682;28;20041;-63
2021/07/13 06:51:32;;;;;;;6.80;4.57;;;17.30;99.90;;;16.41;100.00;96828.16;5042899;28;20045;-64
2021/07/13 06:54:20;;;;;;;6.10;4.90;;;17.30;99.90;;;16.40;100.00;96832.56;5048174;28;20367;-64
2021/07/13 06:57:07;;;;;;;4.85;3.45;;;17.30;99.90;;;16.53;100.00;96819.31;5041270;28;20041;-64
2021/07/13 06:59:59;;;;;;;4.40;2.50;;;17.30;99.90;;;16.43;100.00;96826.25;5030168;28;20128;-64
2021/07/13 07:02:46;;;;;;;5.15;2.70;;;17.30;99.90;;;16.40;100.00;96829.94;5036126;28;20497;-63
2021/07/13 07:05:17;;;;;;;3.97;3.15;;;17.20;99.90;;;16.30;100.00;96826.34;5061874;28;20045;-64
2021/07/13 07:07:50;;;;;;;6.10;4.20;;;17.30;99.90;;;16.22;100.00;96823.50;5012088;28;20149;-64
2021/07/13 07:10:20;;;;;;;3.17;2.17;;;17.30;99.90;;;16.29;100.00;96836.00;5045956;28;20087;-64
2021/07/13 07:12:55;;;;;;;3.75;2.45;;;17.30;99.90;;;16.29;100.00;96836.00;5049788;28;20449;-64
2021/07/13 07:15:22;;;;;;;6.63;3.45;;;17.20;99.90;;;16.26;100.00;96833.63;5032083;28;20045;-64
2021/07/13 07:17:52;;;;;;;3.85;2.97;;;17.20;99.90;;;16.27;100.00;96835.28;5031709;28;20048;-64
2021/07/13 07:20:26;;;;;;;4.95;3.60;;;17.20;99.90;;;16.31;100.00;96834.09;5028729;28;20040;-64
2021/07/13 07:22:59;;;;;;;6.03;4.93;;;17.20;99.90;;;16.18;100.00;96833.38;5047707;28;20041;-64
2021/07/13 07:25:30;;;;;;;5.30;3.80;;;17.10;99.90;;;16.27;100.00;96826.59;5031380;28;20063;-64
2021/07/13 07:28:02;;;;;;;8.48;5.00;;;17.00;99.90;;;16.23;100.00;96833.84;5032418;28;20036;-64
2021/07/13 07:30:30;;;;;;;5.17;3.93;;;17.00;99.90;;;16.04;100.00;96828.38;5047824;28;20041;-64
2021/07/13 07:32:58;;;;;;;5.53;4.30;;;17.00;99.90;;;16.00;100.00;96835.63;5014641;28;20118;-64
2021/07/13 07:35:26;;;;;;;4.90;4.10;;;16.90;99.90;;;15.98;100.00;96831.47;5027758;28;20060;-64
2021/07/13 07:37:55;;;;;;;5.45;4.30;;;17.00;99.90;;;16.05;100.00;96824.78;5045303;28;20049;-64
2021/07/13 07:40:27;;;;;;;5.07;3.60;;;17.00;99.90;;;16.01;100.00;96824.22;5043033;28;20044;-63
2021/07/13 07:42:56;;;;;;;5.22;3.28;;;16.90;99.90;;;16.06;100.00;96819.47;5030323;28;20038;-63
2021/07/13 07:45:24;;;;;;;5.18;4.10;;;17.00;99.90;;;16.12;100.00;96827.78;5025386;28;20052;-64
2021/07/13 07:47:52;;;;;;;4.78;3.60;;;17.00;99.90;;;16.05;100.00;96830.03;5061899;28;20045;-63
2021/07/13 07:50:22;;;;;;;7.63;3.78;;;16.90;99.90;;;16.07;100.00;96833.38;5063171;28;20045;-64
2021/07/13 07:53:00;;;;;;;6.40;3.17;;;16.90;99.90;;;16.07;100.00;96834.19;5046794;28;20059;-64
2021/07/13 07:55:27;;;;;;;4.50;3.42;;;16.90;99.90;;;16.24;100.00;96834.72;5047834;28;20041;-63
2021/07/13 07:57:55;;;;;;;4.13;3.00;;;17.00;99.90;;;16.19;100.00;96835.03;5032356;28;20049;-65
2021/07/13 08:00:23;;;;;;;4.68;2.85;;;17.10;99.90;;;16.19;100.00;96835.03;5053334;28;20102;-65
2021/07/13 08:02:50;;;;;;;3.55;2.10;;;17.10;99.90;;;16.31;100.00;96838.50;5053346;28;20095;-64
2021/07/13 08:05:17;;;;;;;6.10;3.38;;;17.10;99.90;;;16.20;100.00;96834.09;5052279;28;20354;-64
2021/07/13 08:07:46;;;;;;;6.88;3.00;;;17.20;99.90;;;16.30;100.00;96834.22;5003199;28;20118;-64
2021/07/13 08:10:16;;;;;;;5.07;2.35;;;17.20;99.90;;;16.14;100.00;96823.25;5049526;28;20497;-64
2021/07/13 08:12:44;;;;;;;3.42;2.15;;;17.30;99.90;;;16.12;100.00;96836.47;5035606;28;20105;-64
2021/07/13 08:15:13;;;;;;;2.92;1.88;;;17.30;99.90;;;16.02;100.00;96833.72;5034025;28;20048;-64
2021/07/13 08:17:41;;;;;;;3.60;2.08;;;17.20;99.90;;;16.23;100.00;96827.78;5034598;28;20060;-64
2021/07/13 08:20:10;;;;;;;2.63;1.70;;;17.30;99.90;;;16.19;100.00;96828.97;5052145;28;20044;-64
2021/07/13 08:22:38;;;;;;;3.55;2.22;;;17.30;99.90;;;16.26;100.00;96832.78;5030751;28;20044;-64
2021/07/13 08:25:07;;;;;;;4.65;2.13;;;17.30;99.90;;;16.19;100.00;96824.56;5034697;28;20103;-64
2021/07/13 08:27:34;;;;;;;2.28;1.30;;;17.30;99.90;;;16.18;100.00;96827.31;5034502;28;20040;-64
2021/07/13 08:30:05;;;;;;;3.70;1.90;;;17.40;99.90;;;16.26;100.00;96840.63;5045887;28;20095;-64
2021/07/13 08:32:32;;;;;;;2.97;1.80;;;17.40;99.90;;;16.34;100.00;96842.69;5057193;28;20057;-64
2021/07/13 08:34:59;;;;;;;1.65;1.05;;;17.40;99.90;;;16.34;100.00;96838.25;5024207;28;20102;-64
2021/07/13 08:37:29;;;;;;;2.42;1.30;;;17.40;99.90;;;16.36;100.00;96840.78;5008505;28;20048;-65
2021/07/13 08:39:56;;;;;;;3.03;1.75;;;17.40;99.90;;;16.25;100.00;96838.97;5027492;28;20103;-65
2021/07/13 08:42:23;;;;;;;2.17;1.60;;;17.40;99.90;;;16.40;100.00;96829.09;5042811;28;20036;-64
2021/07/13 08:44:50;;;;;;;2.50;1.40;;;17.40;99.90;;;16.36;100.00;96825.88;5040499;28;20045;-64
2021/07/13 08:47:18;;;;;;;1.55;1.20;;;17.50;99.90;;;16.47;100.00;96818.03;5041236;28;20049;-64
2021/07/13 08:49:51;;;;;;;1.80;1.40;;;17.60;99.90;;;16.35;100.00;96823.38;5025183;28;20407;-64
2021/07/13 08:52:18;;;;;;;3.45;1.40;;;17.60;99.90;;;16.31;100.00;96823.63;5008486;28;20044;-64
2021/07/13 08:54:45;;;;;;;1.95;1.30;;;17.60;99.90;;;16.40;100.00;96827.31;5041556;28;20053;-64
2021/07/13 08:57:12;;;;;;;2.85;1.50;;;17.60;99.90;;;16.62;100.00;96825.63;5042376;28;20777;-65
2021/07/13 08:59:39;;;;;;;2.40;1.70;;;17.70;99.90;;;16.44;100.00;96827.91;5041755;28;20061;-65
2021/07/13 09:02:06;;;;;;;2.23;1.50;;;17.70;99.90;;;16.44;100.00;96839.19;5023350;28;20574;-65
2021/07/13 09:04:37;;;;;;;3.65;2.20;;;17.70;99.90;;;16.35;100.00;96834.69;5025618;28;20349;-65
2021/07/13 09:07:09;;;;;;;3.67;1.90;;;17.60;99.90;;;16.40;100.00;96835.19;5045536;28;20052;-64
2021/07/13 09:09:40;;;;;;;2.95;2.25;;;17.60;99.90;;;16.29;100.00;96837.78;5044547;28;20049;-64
2021/07/13 09:12:21;;;;;;;2.83;1.98;;;17.50;99.90;;;16.21;100.00;96838.38;5042634;28;20334;-65
2021/07/13 09:14:57;;;;;;;3.47;1.70;;;17.40;99.90;;;16.13;100.00;96840.75;5054918;28;20083;-65
2021/07/13 09:17:47;;;;;;;5.13;2.20;;;17.30;99.90;;;16.18;100.00;96835.16;5041889;28;20616;-64
2021/07/13 09:20:36;;;;;;;2.95;1.85;;;17.30;99.90;;;16.42;100.00;96842.91;5045389;28;20041;-65
2021/07/13 09:23:08;;;;;;;4.13;2.55;;;17.40;99.90;;;16.48;100.00;96835.38;5050949;28;20339;-65
2021/07/13 09:25:41;;;;;;;2.20;1.60;;;17.40;99.90;;;16.52;100.00;96843.84;5051391;28;20129;-65
2021/07/13 09:28:16;;;;;;;2.03;1.50;;;17.50;99.90;;;16.29;100.00;96859.56;5051371;28;20335;-65
2021/07/13 09:30:50;;;;;;;1.80;1.30;;;17.40;99.90;;;16.22;100.00;96847.91;5047718;28;20045;-65
2021/07/13 09:33:23;;;;;;;1.73;1.25;;;17.40;99.90;;;16.19;100.00;96861.22;5031340;28;20503;-65
2021/07/13 09:36:14;;;;;;;2.67;1.33;;;17.40;99.90;;;16.14;100.00;96849.44;5034160;28;20515;-65
2021/07/13 09:38:58;;;;;;;1.55;1.00;;;17.30;99.90;;;16.08;100.00;96854.19;5051741;28;20045;-65
2021/07/13 09:41:31;;;;;;;2.47;1.17;;;17.30;99.90;;;16.02;100.00;96854.66;5051358;28;20041;-65
2021/07/13 09:43:59;;;;;;;2.58;1.30;;;17.20;99.90;;;16.00;100.00;96851.31;5047210;28;20045;-65
2021/07/13 09:46:45;;;;;;;1.40;1.00;;;17.20;99.90;;;16.04;100.00;96846.69;5049833;28;20048;-65
2021/07/13 09:49:35;;;;;;;1.60;1.00;;;17.20;99.90;;;16.07;100.00;96846.47;5050016;28;20116;-65
2021/07/13 09:52:27;;;;;;;1.75;1.20;;;17.20;99.90;;;16.08;100.00;96856.81;5047106;28;20125;-65
2021/07/13 09:55:17;;;;;;;3.88;0.90;;;17.10;99.90;;;16.09;100.00;96853.25;5048180;28;20037;-65
2021/07/13 09:58:29;;;;;;;1.83;0.90;;;17.10;99.90;;;15.93;100.00;96871.06;5035864;28;20123;-64
2021/07/13 10:00:57;;;;;;;1.40;0.90;;;17.00;99.90;;;15.87;100.00;96866.28;5051192;28;20489;-65
2021/07/13 10:03:27;;;;;;;2.00;0.90;;;17.00;99.90;;;15.73;100.00;96879.56;5018968;28;20506;-66
2021/07/13 10:05:54;;;;;;;1.60;0.80;;;17.00;99.90;;;15.71;100.00;96873.63;5050949;28;20115;-65
2021/07/13 10:08:23;;;;;;;1.60;0.80;;;16.90;99.90;;;15.72;100.00;96881.38;5032658;28;20067;-63
2021/07/13 10:10:50;;;;;;;2.00;1.02;;;16.80;99.90;;;15.67;100.00;96873.81;5050994;28;20037;-64
2021/07/13 10:13:19;;;;;;;1.40;0.80;;;16.70;99.90;;;15.60;100.00;96879.59;5051124;28;20110;-65
2021/07/13 10:15:48;;;;;;;2.00;0.77;;;16.70;99.90;;;15.52;100.00;96882.81;5031268;28;20559;-65
2021/07/13 10:18:21;;;;;;;1.30;0.70;;;16.60;99.90;;;15.48;100.00;96881.34;5050633;28;20132;-65
2021/07/13 10:20:49;;;;;;;2.80;0.52;;;16.50;99.90;;;15.36;100.00;96877.88;5024677;28;20053;-65
2021/07/13 10:23:19;;;;;;;1.58;0.45;;;16.50;99.90;;;15.31;100.00;96866.91;5026495;28;20042;-64
2021/07/13 10:25:46;;;;;;;0.88;0.30;;;16.40;99.90;;;15.26;100.00;96871.66;5002401;28;20104;-65
2021/07/13 10:28:21;;;;;;;0.55;0.40;;;16.30;99.90;;;15.31;100.00;96885.22;5025728;28;20116;-65
2021/07/13 10:30:54;;;;;;;0.90;0.30;;;16.20;99.90;;;15.23;100.00;96880.53;5031670;28;20115;-65
2021/07/13 10:33:38;;;;;;;0.77;0.40;;;16.20;99.90;;;15.35;100.00;96875.34;5050403;28;20120;-65
2021/07/13 10:36:31;;;;;;;0.88;0.40;;;16.20;99.90;;;15.17;100.00;96883.59;5044949;28;20107;-66
2021/07/13 10:39:28;;;;;;;0.50;0.30;;;16.20;99.90;;;15.21;100.00;96879.81;5041285;28;20454;-65
2021/07/13 10:42:03;;;;;;;0.73;0.28;;;16.20;99.90;;;15.14;100.00;96893.44;5050721;28;20079;-65
2021/07/13 10:44:48;;;;;;;0.28;0.20;;;16.20;99.90;;;15.16;100.00;96887.16;5029111;28;20046;-65
2021/07/13 10:47:36;;;;;;;0.40;0.30;;;16.10;99.90;;;15.11;100.00;96889.25;5040714;28;20041;-65
2021/07/13 10:50:29;;;;;;;0.30;0.20;;;16.10;99.90;;;15.05;100.00;96910.59;5049680;28;20536;-64
2021/07/13 10:53:43;;;;;;;0.65;0.40;;;16.00;99.90;;;15.00;100.00;96902.25;5050059;28;20508;-63
2021/07/13 10:56:32;;;;;;;2.38;0.30;;;15.90;99.90;;;14.97;100.00;96908.53;5028794;28;20136;-63
2021/07/13 10:58:59;;;;;;;0.40;0.30;;;15.90;99.90;;;14.79;100.00;96918.50;5050174;28;20036;-63
2021/07/13 11:01:28;;;;;;;0.50;0.30;;;15.90;99.90;;;14.82;100.00;96910.47;5025845;28;20040;-63
2021/07/13 11:04:00;;;;;;;1.88;0.25;;;15.80;99.90;;;14.92;100.00;96922.91;5064221;28;20037;-63
2021/07/13 11:06:44;;;;;;;0.45;0.20;;;15.80;99.90;;;14.81;100.00;96919.25;5032120;28;20376;-63
2021/07/13 11:09:33;;;;;;;0.45;0.30;;;15.70;99.90;;;14.75;100.00;96929.28;5047279;28;20052;-63
2021/07/13 11:12:13;;;;;;;0.20;0.20;;;15.70;99.90;;;14.80;100.00;96924.56;5050079;28;20041;-62
2021/07/13 11:14:56;;;;;;;1.10;0.30;;;15.70;99.90;;;14.78;100.00;96921.22;5049769;28;20460;-63
2021/07/13 11:17:25;;;;;;;0.82;0.20;;;15.80;99.90;;;14.70;100.00;96939.22;5047396;28;20573;-63